Bei Facebook empfehlenBei Twitter postenGoogle plusPinterest

Das Wetter im Erzgebirge am 25.06.2015

Wetter und Klima am 25.06.2015 Holzhau im Erzgebirge (630m ü.NN)
Letzte gemessene Temperatur und Uhrzeit der Messung23:45:00 Uhr8.50 °C
Temperatur (Maximum / Höchstwert) und Uhrzeit der Messung18:15:00 Uhr21.70 °C
Temperatur (Minimum / Tiefstwert) und Uhrzeit der Messung05:30:003.50 °C
Errechneter Absolutwert der Temperaturschwankungen zwischen Tmin und Tmax des Tages18.20 K
Errechnete Tagesmitteltemperatur13.69375 °C
Gesamt - Niederschlag des Tages (in flüssiger Form)0.00 Liter / m²
Luftdruck (Maximum / Höchstwert) und Zeitpunkt der Messung14:45:00 Uhr1021.60 hPa
Luftdruck (Minimum / Tiefstwert) und Zeitpunkt der Messung18:45:00 Uhr1020.80 hPa
Errechneter Absolutwert der Luftdruckschwankungen des Tages0.80 hPa
Höchste gemessene Windgeschwindigkeit und Uhrzeit der Messung23:45:00 Uhr0.00 km/h
Errechnete Windhäufigkeit in Relation zu den Messwerten des Tages0.00000 %
Niedrigste Windkühle (Windchill) und Zeitpunkt der Messung05:30:00 Uhr3.50 °C
Taupunkt (Maximum / Höchstwert) und Uhrzeit der Messung08:00:00 Uhr12.20 °C
Taupunkt (Minimum / Tiefstwert) und Uhrzeit der Messung05:30:002.30 °C
Anzahl der automatisch eingelesenen Messwerte 96

Detaillierte Wetter- und Klima- Messwerte für den 25.06.2015 in Holzhau im Erzgebirge (630m ü.NN)
ZeitTemperaturLuftdruckRel. LuftfeuchteWindWindrichtungWindchillTaupunktNiederschlag l/m²
23:45:008.50 °C1021.30 hPa86.00 %6.30 °C 
23:30:008.90 °C1021.30 hPa86.00 %6.70 °C 
23:15:008.90 °C1021.30 hPa86.00 %6.70 °C 
23:00:009.00 °C1021.30 hPa84.00 %6.40 °C 
22:45:009.30 °C1021.20 hPa84.00 %6.70 °C 
22:30:009.50 °C1021.50 hPa82.00 %6.60 °C 
22:15:0010.10 °C1021.30 hPa81.00 %7.00 °C 
22:00:0010.60 °C1021.20 hPa79.00 %7.10 °C 
21:45:0011.30 °C1021.40 hPa78.00 %7.60 °C 
21:30:0011.90 °C1021.30 hPa76.00 %7.80 °C 
21:15:0012.60 °C1021.20 hPa74.00 %8.10 °C 
21:00:0013.80 °C1021.10 hPa70.00 %8.40 °C 
20:45:0015.00 °C1021.10 hPa67.00 %8.90 °C 
20:30:0015.80 °C1021.10 hPa66.00 %9.50 °C 
20:15:0016.30 °C1021.00 hPa64.00 %9.50 °C 
20:00:0017.00 °C1021.00 hPa62.00 %9.70 °C 
19:45:0017.60 °C1021.00 hPa59.00 %9.50 °C 
19:30:0018.80 °C1021.00 hPa55.00 %9.60 °C 
19:15:0019.60 °C1021.00 hPa52.00 %9.50 °C 
19:00:0020.20 °C1020.90 hPa51.00 %9.70 °C 
18:45:0020.70 °C1020.80 hPa50.00 %9.90 °C 
18:30:0021.60 °C1020.80 hPa50.00 %10.70 °C 
18:15:0021.70 °C1020.80 hPa50.00 %10.80 °C 
18:00:0021.10 °C1021.00 hPa52.00 %10.90 °C 
17:45:0020.60 °C1021.00 hPa52.00 %10.40 °C 
17:30:0020.90 °C1020.90 hPa53.00 %11.00 °C 
17:15:0020.60 °C1020.90 hPa53.00 %10.70 °C 
17:00:0020.20 °C1021.00 hPa54.00 %10.60 °C 
16:45:0019.90 °C1021.10 hPa53.00 %10.00 °C 
16:30:0020.30 °C1021.20 hPa53.00 %10.40 °C 
16:15:0020.40 °C1021.20 hPa53.00 %10.50 °C 
16:00:0020.80 °C1021.30 hPa54.00 %11.20 °C 
15:45:0020.90 °C1021.20 hPa53.00 %11.00 °C 
15:30:0021.10 °C1021.30 hPa53.00 %11.20 °C 
15:15:0021.20 °C1021.40 hPa54.00 %11.50 °C 
15:00:0020.60 °C1021.40 hPa55.00 %11.20 °C 
14:45:0020.40 °C1021.60 hPa56.00 %11.30 °C 
14:30:0019.60 °C1021.40 hPa57.00 %10.90 °C 
14:15:0018.50 °C1021.60 hPa59.00 %10.30 °C 
14:00:0018.50 °C1021.60 hPa59.00 %10.30 °C 
13:45:0018.60 °C1021.60 hPa58.00 %10.20 °C 
13:30:0018.90 °C1021.30 hPa58.00 %10.50 °C 
13:15:0019.30 °C1021.40 hPa57.00 %10.60 °C 
13:00:0020.50 °C1021.40 hPa54.00 %10.90 °C 
12:45:0021.60 °C1021.30 hPa53.00 %11.60 °C 
12:30:0020.60 °C1021.30 hPa54.00 %11.00 °C 
12:15:0020.90 °C1021.40 hPa53.00 %11.00 °C 
12:00:0019.80 °C1021.20 hPa55.00 %10.50 °C 
11:45:0019.50 °C1021.30 hPa54.00 %10.00 °C 
11:30:0020.50 °C1021.10 hPa54.00 %10.90 °C 
11:15:0020.40 °C1021.20 hPa57.00 %11.60 °C 
11:00:0019.80 °C1021.30 hPa55.00 %10.50 °C 
10:45:0019.90 °C1021.20 hPa56.00 %10.90 °C 
10:30:0019.80 °C1021.30 hPa59.00 %11.60 °C 
10:15:0018.90 °C1021.40 hPa62.00 %11.50 °C 
10:00:0018.40 °C1021.40 hPa65.00 %11.70 °C 
09:45:0018.20 °C1021.30 hPa66.00 %11.70 °C 
09:30:0018.10 °C1021.30 hPa66.00 %11.70 °C 
09:15:0017.70 °C1021.30 hPa68.00 %11.70 °C 
09:00:0017.60 °C1021.30 hPa69.00 %11.80 °C 
08:45:0017.40 °C1021.30 hPa71.00 %12.10 °C 
08:30:0017.00 °C1021.50 hPa73.00 %12.10 °C 
08:15:0016.50 °C1021.40 hPa75.00 %12.10 °C 
08:00:0015.60 °C1021.40 hPa80.00 %12.20 °C 
07:45:0014.30 °C1021.30 hPa86.00 %12.00 °C 
07:30:0012.30 °C1021.50 hPa91.00 %10.90 °C 
07:15:009.20 °C1021.60 hPa93.00 %8.10 °C 
07:00:005.90 °C1021.30 hPa93.00 %4.90 °C 
06:45:005.30 °C1021.40 hPa93.00 %4.30 °C 
06:30:004.90 °C1021.30 hPa92.00 %3.70 °C 
06:15:004.40 °C1021.40 hPa92.00 %3.20 °C 
06:00:004.20 °C1021.40 hPa92.00 %3.00 °C 
05:45:003.90 °C1021.30 hPa92.00 %2.70 °C 
05:30:003.50 °C1021.30 hPa92.00 %2.30 °C 
05:15:003.60 °C1021.30 hPa91.00 %2.30 °C 
05:00:003.60 °C1021.20 hPa91.00 %2.30 °C 
04:45:003.60 °C1021.20 hPa91.00 %2.30 °C 
04:30:003.80 °C1021.30 hPa92.00 %2.60 °C 
04:15:004.00 °C1021.30 hPa91.00 %2.70 °C 
04:00:004.10 °C1021.20 hPa91.00 %2.80 °C 
03:45:004.20 °C1021.30 hPa91.00 %2.90 °C 
03:30:004.40 °C1021.40 hPa91.00 %3.10 °C 
03:15:004.60 °C1021.30 hPa91.00 %3.30 °C 
03:00:004.90 °C1021.30 hPa90.00 %3.40 °C 
02:45:005.20 °C1021.40 hPa91.00 %3.90 °C 
02:30:005.40 °C1021.40 hPa91.00 %4.10 °C 
02:15:005.60 °C1021.30 hPa90.00 %4.10 °C 
02:00:005.90 °C1021.30 hPa90.00 %4.40 °C 
01:45:006.30 °C1021.40 hPa90.00 %4.80 °C 
01:30:006.40 °C1021.40 hPa90.00 %4.90 °C 
01:15:006.50 °C1021.60 hPa90.00 %5.00 °C 
01:00:006.50 °C1021.50 hPa90.00 %5.00 °C 
00:45:006.90 °C1021.40 hPa90.00 %5.40 °C 
00:30:007.00 °C1021.60 hPa90.00 %5.50 °C 
00:15:007.10 °C1021.60 hPa89.00 %5.40 °C 
00:00:007.30 °C1021.50 hPa88.00 %5.40 °C 

Permanenter Link zu dieser Seite: Wetter im Erzgebirge am 25.06.2015
Performance-Info: Die Erstellung der Seite / Statistik(en) / Tabelle(n) erforderte 5 Datenbankserver-Abfrage(n) und dauerte 98 Millisekunden. (Dieser Messwert ist von der Gesamt-Auslastung des Servers abhängig.)
Erzgebirge - Wetter | Erzgebirge - Wetter (Mobilgeräte) | Komplette Klimadatenbank